WetterOnline ( http://www.wetteronline.de )

Wetter aktuell Tannheim

Aktuelles Wetter: Oberstdorf (812m)

6-stündlich | Neueste Meldungen
Ortszeit Temperatur Wetter
So, 24.03. 19:00 8.0° C wolkenlos
So, 24.03. 13:00 16.1° C wolkenlos
So, 24.03. 7:00 -1.9° C fast wolkenlos
So, 24.03. 1:00 0.1° C wolkenlos
Sa, 23.03. 19:00 7.9° C fast wolkenlos
Sa, 23.03. 13:00 15.1° C wolkenlos
Sa, 23.03. 7:00 -2.3° C wolkenlos
Sa, 23.03. 1:00 -0.2° C wolkenlos
Ortszeit Temperatur Wetter
So, 24.03. 22:30 4.9° C bewölkt
So, 24.03. 22:20 4.9° C bewölkt
So, 24.03. 22:10 5.2° C bewölkt
So, 24.03. 22:00 4.4° C bewölkt
So, 24.03. 21:50 4.4° C bewölkt
So, 24.03. 21:40 3.1° C bewölkt
So, 24.03. 21:30 4.0° C wolkig
So, 24.03. 21:00 4.2° C wolkenlos
So, 24.03. 20:30 4.6° C wolkenlos
So, 24.03. 20:00 5.4° C wolkenlos
So, 24.03. 19:30 6.1° C wolkenlos
So, 24.03. 19:00 8.0° C wolkenlos
Ortszeit Relative Feuchte Sichtweite
So, 24.03. 19:00 65% 17 km
So, 24.03. 13:00 32% 13 km
So, 24.03. 7:00 92% 9 km
So, 24.03. 1:00 87% 10 km
Sa, 23.03. 19:00 58% 27 km
Sa, 23.03. 13:00 29% 70 km
Sa, 23.03. 7:00 85% 70 km
Sa, 23.03. 1:00 81% 35 km
Ortszeit Relative Feuchte Sichtweite
So, 24.03. 22:30 81% 9 km
So, 24.03. 22:20 81% -
So, 24.03. 22:10 79% -
So, 24.03. 22:00 82% 13 km
So, 24.03. 21:50 82% -
So, 24.03. 21:40 85% -
So, 24.03. 21:30 81% 13 km
So, 24.03. 21:00 79% 14 km
So, 24.03. 20:30 77% 15 km
So, 24.03. 20:00 74% 17 km
So, 24.03. 19:30 71% 17 km
So, 24.03. 19:00 65% 17 km
Ortszeit Niederschlagsmenge Niederschlagsart
So, 24.03. 19:00 0.0 l/m2 in 12 Std. -
So, 24.03. 13:00 0.0 l/m2 in 6 Std. -
So, 24.03. 7:00 0.0 l/m2 in 12 Std. -
So, 24.03. 1:00 0.0 l/m2 in 6 Std. -
Sa, 23.03. 19:00 0.0 l/m2 in 12 Std. -
Sa, 23.03. 13:00 0.0 l/m2 in 6 Std. -
Sa, 23.03. 7:00 0.0 l/m2 in 12 Std. -
Sa, 23.03. 1:00 0.0 l/m2 in 6 Std. -
Ortszeit Niederschlagsmenge Niederschlagsart
So, 24.03. 22:30 0.0 l/m2 in 1 Std. -
So, 24.03. 22:20 keine Meldung -
So, 24.03. 22:10 keine Meldung -
So, 24.03. 22:00 0.0 l/m2 in 1 Std. -
So, 24.03. 21:50 keine Meldung -
So, 24.03. 21:40 keine Meldung -
So, 24.03. 21:30 0.0 l/m2 in 1 Std. -
So, 24.03. 21:00 0.0 l/m2 in 1 Std. -
So, 24.03. 20:30 0.0 l/m2 in 1 Std. -
So, 24.03. 20:00 0.0 l/m2 in 1 Std. -
So, 24.03. 19:30 0.0 l/m2 in 1 Std. -
So, 24.03. 19:00 0.0 l/m2 in 1 Std. -
Ortszeit Stärke Spitze Richtung
km/h Bft. km/h Grad Sektor
So, 24.03. 19:00 11 2 32 150° SO
So, 24.03. 13:00 4 1 11 260° W
So, 24.03. 7:00 4 1 11 190° S
So, 24.03. 1:00 7 2 18 150° SO
Sa, 23.03. 19:00 14 3 22 170° S
Sa, 23.03. 13:00 4 1 7 200° S
Sa, 23.03. 7:00 4 1 11 150° SO
Sa, 23.03. 1:00 7 2 18 160° S
Ortszeit Stärke Spitze Richtung
km/h Bft. km/h Grad Sektor
So, 24.03. 22:30 7 2 11 140° SO
So, 24.03. 22:20 7 2 - 140° SO
So, 24.03. 22:10 7 2 - 140° SO
So, 24.03. 22:00 6 1 13 160° S
So, 24.03. 21:50 6 1 - 160° S
So, 24.03. 21:40 4 1 - 200° S
So, 24.03. 21:30 7 2 11 160° S
So, 24.03. 21:00 4 1 14 140° SO
So, 24.03. 20:30 11 2 14 170° S
So, 24.03. 20:00 9 2 17 190° S
So, 24.03. 19:30 13 3 17 170° S
So, 24.03. 19:00 11 2 14 150° SO
Ortszeit Untergrenze Bedeckung Gattung
total tief tief mittel hoch
So, 24.03. 19:00 - 0/8 0/8 - - -
So, 24.03. 13:00 - 0/8 0/8 - - -
So, 24.03. 7:00 9000 m 1/8 0/8 - - -
So, 24.03. 1:00 - 0/8 0/8 - - -
Sa, 23.03. 19:00 10500 m 1/8 0/8 - - -
Sa, 23.03. 13:00 - 0/8 0/8 - - -
Sa, 23.03. 7:00 - 0/8 0/8 - - -
Sa, 23.03. 1:00 - 0/8 0/8 - - -
Ortszeit Bedeckungsgrad in Achtel und Wolkenuntergrenze
So, 24.03. 22:30 7(2400m)
So, 24.03. 22:20 7(2400m)
So, 24.03. 22:10 1(1230m) 7(2100m)
So, 24.03. 22:00 2(1260m) 7(2100m)
So, 24.03. 21:50 2(1260m) 7(2100m)
So, 24.03. 21:40 7(2100m)
So, 24.03. 21:30 5(2400m)
So, 24.03. 21:00 keine Wolken
So, 24.03. 20:30 keine Wolken
So, 24.03. 20:00 keine Wolken
So, 24.03. 19:30 keine Wolken
So, 24.03. 19:00 keine Wolken
Ortszeit Stationsdruck (hPa) Tendenz (hPa in 3 Std.)
So, 24.03. 19:00 928 + 1,1
So, 24.03. 13:00 928 - 1,2
So, 24.03. 7:00 930 0,0
So, 24.03. 1:00 932 - 1,5
Sa, 23.03. 19:00 932 + 0,7
Sa, 23.03. 13:00 933 - 1,2
Sa, 23.03. 7:00 934 + 0,3
Sa, 23.03. 1:00 934 - 0,4
Ortszeit Stationsdruck (hPa) Tendenz (hPa in 3 Std.)
So, 24.03. 22:30 929 + 0,9
So, 24.03. 22:20 929 keine Meldung
So, 24.03. 22:10 929 keine Meldung
So, 24.03. 22:00 929 + 1,3
So, 24.03. 21:50 929 keine Meldung
So, 24.03. 21:40 929 keine Meldung
So, 24.03. 21:30 929 + 1,4
So, 24.03. 21:00 929 + 1,1
So, 24.03. 20:30 928 + 0,8
So, 24.03. 20:00 929 + 1,2
So, 24.03. 19:30 928 + 1,3
So, 24.03. 19:00 928 + 1,1
Ortszeit Schneehöhe (cm)
So, 24.03. 19:00 0
So, 24.03. 13:00 0
So, 24.03. 7:00 0
So, 24.03. 1:00 0
Sa, 23.03. 19:00 0
Sa, 23.03. 13:00 -
Sa, 23.03. 7:00 3
Sa, 23.03. 1:00 2
Ortszeit Schneehöhe (cm)
So, 24.03. 22:30 -
So, 24.03. 22:20 -
So, 24.03. 22:10 -
So, 24.03. 22:00 -
So, 24.03. 21:50 -
So, 24.03. 21:40 -
So, 24.03. 21:30 -
So, 24.03. 21:00 -
So, 24.03. 20:30 -
So, 24.03. 20:00 -
So, 24.03. 19:30 -
So, 24.03. 19:00 0
Link zu dieser Seite / Seite empfehlen

Das Wetter in ...